Startpagina
METAR-TAF:

METAR-TAF

Vliegvelden :

Luchthaven Tunis-Carthage

Tunis, Tunesië

breedte: 36-50N, lengte: 010-14E, hoogte: 3 m

Actueel weer

Dit bericht is 35 minuten geleden gemaakt, om 22:00 UTC
Wind 2 kt uit variabele richting
Temperatuur 19°C
Vochtigheid 78%
Druk 1020 hPa
Zicht 10 km of meer
Weinig wolken op 2600 ft

METAR: DTTA 232200Z VRB02KT 9999 FEW026 19/15 Q1020 NOSIG

Tijdstip: 23:35 (22:35 UTC)

Verwachting

Dit bericht is 4 uur en het 55 minuten geleden gemaakt, om 17:40 UTC
Verwachting geldig van 23 om 18 UTC tot 24 om 18 UTC
Wind 10 kt uit het noorden
Zicht 10 km of meer
Verspreide wolken op 2600 ft
Wijzigt naar
van 23 om 20 UTC tot 23 om 22 UTC
Wind 3 kt uit variabele richting
Wijzigt naar
van 24 om 07 UTC tot 24 om 09 UTC
Wind 10 kt uit het oostnoordoosten
Zicht 10 km of meer
Weinig wolken op 3000 ft

TAF: DTTA 231740Z 2318/2418 35010KT 9999 SCT026 BECMG 2320/2322 VRB03KT BECMG 2407/2409 06010KT 9999 FEW030

Waarnemingen en weersverwachtingen van meer dan 4000 vliegvelden (METAR en TAF).

De beschikbare stations zijn de gele en rode punten op de kaart.

Ga met uw muis naar het station om de naam te zien.

Klik dan om waarnemingen en weersverwachtingen te zien.

kaart wijzigen: klik op de groene knoppen met een zwart kruis om in te zoomen, op de groene knop met een streepje om uit te zoomen of op de groene pijlen voor aangrenzende kaarten.


METAR-TAF: